KLNA/LNA METAR and TAF weather

Enter ICAO airport designator
Station Type Date Time Source
KLNA METAR 2019/02/21 11:55 UTC NOAA

KLNA 211155Z AUTO 12009KT SCT023 SCT030 SCT045 24/21 A3011 RMK AO2 T02410205 10245 20241 PWINO


Station Type Date Time Source
KLNA Decoded METAR 2019/02/21 11:55 UTC NOAA

Station name not available
Feb 21, 2019 - 06:55 AM EST / 2019.02.21 1155 UTC
Wind: from the ESE (120 degrees) at 10 MPH (9 KT):0
Sky conditions: partly cloudy
Temperature: 75.4 F (24.1 C)
Dew Point: 68.9 F (20.5 C)
Relative Humidity: 80%
Pressure (altimeter): 30.11 in. Hg (1019 hPa)
ob: KLNA 211155Z AUTO 12009KT SCT023 SCT030 SCT045 24/21 A3011 RMK AO2 T02410205 10245 20241 PWINO
cycle: 12

Station Type Date Time Source
KLNA TAF UTC NOAA

Error!


Example: see airport list